Time;durP1;ratioP1;P1;durP2;ratioP2;P2;SDS_P1;SDS_P2;PMS_P1;PMS_P2;Temp;Humidity;BMP_temperature;BMP_pressure;BME280_temperature;BME280_humidity;BME280_pressure;Samples;Min_cycle;Max_cycle;Signal;HPM_P1;HPM_P2
2023/11/21 00:00:02;;;;;;;12.30;6.50;;;;;;;7.82;52.73;100313.46;106051;1259;72781;-82
2023/11/21 00:02:51;;;;;;;13.00;6.20;;;;;;;7.80;52.75;100317.93;105936;1257;60447;-82
2023/11/21 00:05:31;;;;;;;12.10;6.70;;;;;;;7.84;53.19;100317.49;106009;1257;60499;-82
2023/11/21 00:08:11;;;;;;;14.40;7.20;;;;;;;7.82;53.26;100319.23;105938;1259;72172;-82
2023/11/21 00:10:51;;;;;;;15.90;7.20;;;;;;;7.85;53.43;100322.61;106110;1257;68126;-83
2023/11/21 00:13:31;;;;;;;13.40;6.90;;;;;;;7.88;52.87;100323.02;106006;1257;72755;-82
2023/11/21 00:16:11;;;;;;;15.30;6.80;;;;;;;7.82;53.02;100325.81;105985;1256;60533;-83
2023/11/21 00:18:53;;;;;;;13.30;6.60;;;;;;;7.79;53.10;100325.96;106002;1256;60486;-83
2023/11/21 00:21:33;;;;;;;13.50;6.80;;;;;;;7.89;53.05;100326.45;106313;1256;72618;-83
2023/11/21 00:24:13;;;;;;;16.10;8.50;;;;;;;7.83;53.09;100327.39;105939;1257;68392;-83
2023/11/21 00:26:53;;;;;;;12.50;6.30;;;;;;;7.84;53.35;100332.36;105928;1257;71443;-83
2023/11/21 00:29:33;;;;;;;11.20;6.20;;;;;;;7.92;53.15;100331.63;106143;1259;60443;-85
2023/11/21 00:32:13;;;;;;;16.70;7.90;;;;;;;7.94;53.05;100328.16;106352;1256;60303;-82
2023/11/21 00:34:54;;;;;;;13.80;6.60;;;;;;;7.95;53.08;100328.38;105955;1257;73871;-83
2023/11/21 00:37:34;;;;;;;14.50;7.70;;;;;;;7.83;53.51;100327.27;106003;1257;67590;-84
2023/11/21 00:40:15;;;;;;;16.10;7.60;;;;;;;7.39;54.75;100334.03;105930;1259;71285;-83
2023/11/21 00:42:55;;;;;;;13.10;6.90;;;;;;;7.26;55.40;100337.97;106392;1257;60383;-83
2023/11/21 00:45:36;;;;;;;14.60;7.40;;;;;;;7.29;55.62;100338.09;105891;1256;60462;-85
2023/11/21 00:48:16;;;;;;;14.70;6.80;;;;;;;7.27;55.71;100344.80;105989;1257;73364;-84
2023/11/21 00:51:03;;;;;;;16.20;7.50;;;;;;;7.22;55.84;100345.98;106071;1257;67670;-83
2023/11/21 00:53:43;;;;;;;17.80;7.60;;;;;;;7.34;55.58;100343.08;105907;1263;71083;-84
2023/11/21 00:56:24;;;;;;;13.30;7.20;;;;;;;7.40;55.63;100343.05;105956;1262;60570;-85
2023/11/21 00:59:04;;;;;;;15.30;7.50;;;;;;;7.46;55.32;100350.02;105951;1264;60400;-83
2023/11/21 01:01:45;;;;;;;16.40;7.40;;;;;;;7.27;56.05;100345.95;105994;1257;72562;-85
2023/11/21 01:04:25;;;;;;;12.60;7.10;;;;;;;7.35;56.21;100345.46;106294;1257;67112;-85
2023/11/21 01:07:07;;;;;;;14.50;7.30;;;;;;;7.47;56.16;100347.02;105970;1263;72512;-83
2023/11/21 01:09:46;;;;;;;14.70;7.70;;;;;;;7.51;55.50;100352.27;105878;1258;60555;-85
2023/11/21 01:12:26;;;;;;;12.80;6.80;;;;;;;7.43;55.85;100343.26;106103;1259;60563;-83
2023/11/21 01:15:07;;;;;;;14.80;7.20;;;;;;;7.28;56.27;100345.36;106235;1258;73849;-85
2023/11/21 01:17:48;;;;;;;15.80;7.20;;;;;;;7.36;56.10;100353.09;105936;1258;68408;-83
2023/11/21 01:20:28;;;;;;;14.30;7.30;;;;;;;7.39;55.88;100360.55;106018;1258;72573;-85
2023/11/21 01:23:08;;;;;;;14.20;7.50;;;;;;;7.50;55.84;100361.77;105890;1260;60935;-83
2023/11/21 01:25:48;;;;;;;13.80;7.40;;;;;;;7.67;55.44;100362.23;106332;1257;60418;-83
2023/11/21 01:28:34;;;;;;;14.30;7.00;;;;;;;7.68;55.41;100368.21;106070;1257;73869;-83
2023/11/21 01:31:14;;;;;;;15.50;7.20;;;;;;;7.61;55.48;100367.58;106006;1260;67104;-83
2023/11/21 01:33:55;;;;;;;14.50;7.80;;;;;;;7.63;55.50;100373.35;105898;1260;72001;-85
2023/11/21 01:36:38;;;;;;;14.10;6.70;;;;;;;7.70;55.41;100372.14;106321;1260;60533;-83
2023/11/21 01:39:23;;;;;;;15.30;7.80;;;;;;;7.59;55.43;100376.96;105905;1262;60630;-83
2023/11/21 01:42:03;;;;;;;12.20;6.90;;;;;;;7.53;55.65;100384.20;106082;1256;71616;-82
2023/11/21 05:44:18;;;;;;;17.40;8.30;;;;;;;7.00;61.05;100553.99;106118;1256;72674;-82
2023/11/21 05:46:52;;;;;;;16.10;8.40;;;;;;;7.08;60.79;100561.45;106052;1263;60547;-83
2023/11/21 05:49:26;;;;;;;25.10;10.40;;;;;;;7.20;60.47;100562.56;106020;1263;61208;-84
2023/11/21 05:52:00;;;;;;;40.90;16.70;;;;;;;7.28;60.33;100564.13;106046;1258;73912;-82
2023/11/21 05:54:31;;;;;;;36.00;15.80;;;;;;;7.28;60.16;100564.34;106354;1258;68434;-84
2023/11/21 05:57:05;;;;;;;25.40;13.40;;;;;;;7.30;60.28;100567.63;106150;1264;72457;-83
2023/11/21 05:59:38;;;;;;;31.90;14.80;;;;;;;7.23;60.88;100562.98;106081;1258;60393;-83
2023/11/21 06:02:07;;;;;;;25.50;13.20;;;;;;;7.39;60.58;100562.34;106076;1259;60404;-92
2023/11/21 06:04:41;;;;;;;24.60;12.00;;;;;;;7.15;61.62;100568.96;106613;1258;72613;-81
2023/11/21 06:07:10;;;;;;;27.00;13.00;;;;;;;7.24;61.48;100572.28;106338;1258;68565;-81
2023/11/21 06:09:44;;;;;;;20.10;11.50;;;;;;;7.28;61.09;100578.36;106346;1257;72700;-88
2023/11/21 06:12:12;;;;;;;20.20;9.60;;;;;;;7.24;61.70;100576.56;106330;1261;60438;-81
2023/11/21 06:14:40;;;;;;;19.00;9.20;;;;;;;7.28;61.59;100579.73;106615;1257;60067;-80
2023/11/21 06:17:09;;;;;;;17.20;9.10;;;;;;;7.59;59.89;100575.22;106072;1256;73992;-83
2023/11/21 06:19:42;;;;;;;21.90;9.30;;;;;;;7.67;59.15;100576.98;105978;1257;69266;-82
2023/11/21 06:22:15;;;;;;;19.00;9.20;;;;;;;7.60;59.26;100580.95;106168;1256;71788;-82
2023/11/21 06:24:47;;;;;;;16.30;9.30;;;;;;;7.63;58.89;100584.34;106508;1256;61112;-83
2023/11/21 06:27:21;;;;;;;;;;;;;;;7.67;58.67;100585.64;106245;1258;60552;-83
2023/11/21 06:29:48;;;;;;;17.40;8.70;;;;;;;7.66;58.78;100586.45;106346;1261;73846;-83
2023/11/21 06:32:17;;;;;;;15.90;7.90;;;;;;;7.53;58.96;100585.65;106241;1260;68892;-82
2023/11/21 06:34:54;;;;;;;16.70;8.60;;;;;;;7.69;58.47;100587.45;106575;1257;71714;-84
2023/11/21 06:37:23;;;;;;;16.60;8.50;;;;;;;7.74;58.30;100587.88;106332;1258;60357;-83
2023/11/21 06:39:56;;;;;;;13.20;7.50;;;;;;;7.76;58.32;100585.77;106394;1257;61214;-85
2023/11/21 06:42:30;;;;;;;15.40;8.00;;;;;;;7.80;58.05;100586.80;106205;1258;74009;-85
2023/11/21 06:45:04;;;;;;;22.20;10.20;;;;;;;7.98;57.73;100584.73;106101;1258;67112;-84
2023/11/21 06:47:36;;;;;;;23.60;10.70;;;;;;;7.89;57.67;100584.53;106223;1256;72700;-85
2023/11/21 06:50:10;;;;;;;18.00;9.00;;;;;;;7.77;58.39;100586.92;106068;1261;60541;-84
2023/11/21 06:52:44;;;;;;;16.40;8.50;;;;;;;7.79;58.55;100582.70;106131;1259;60457;-84
2023/11/21 06:55:17;;;;;;;13.90;7.80;;;;;;;7.87;58.10;100583.87;106097;1256;73869;-85
2023/11/21 06:57:44;;;;;;;17.20;8.20;;;;;;;8.04;57.65;100587.05;106372;1261;68352;-85
2023/11/21 07:00:17;;;;;;;18.60;8.50;;;;;;;8.04;57.53;100590.38;106242;1262;72701;-84
2023/11/21 07:02:50;;;;;;;18.70;9.40;;;;;;;8.05;57.60;100598.11;106328;1257;60543;-84
2023/11/21 07:05:22;;;;;;;19.40;8.80;;;;;;;8.00;57.44;100604.61;106167;1258;60899;-85
2023/11/21 07:07:50;;;;;;;21.70;9.30;;;;;;;8.02;57.71;100602.13;106561;1256;73894;-85
2023/11/21 07:10:24;;;;;;;19.90;9.30;;;;;;;8.03;57.97;100607.73;106210;1257;67009;-84
2023/11/21 07:12:57;;;;;;;16.90;8.90;;;;;;;8.11;57.96;100606.94;106133;1255;72617;-85
2023/11/21 07:15:25;;;;;;;19.80;9.30;;;;;;;8.32;57.46;100607.44;106252;1256;60485;-86
2023/11/21 07:17:59;;;;;;;18.50;8.40;;;;;;;8.28;57.51;100608.44;106385;1255;60369;-84
2023/11/21 07:20:35;;;;;;;19.70;9.30;;;;;;;8.33;57.40;100606.80;106151;1256;72703;-84
2023/11/21 07:23:08;;;;;;;19.80;9.00;;;;;;;8.29;57.58;100613.73;106235;1255;68395;-85
2023/11/21 07:25:36;;;;;;;22.60;9.40;;;;;;;8.35;57.32;100617.22;106086;1257;71775;-85
2023/11/21 07:28:10;;;;;;;21.80;9.90;;;;;;;8.25;57.23;100622.36;106295;1257;60471;-85
2023/11/21 07:30:44;;;;;;;23.80;10.00;;;;;;;8.25;57.10;100622.56;106188;1255;60566;-85
2023/11/21 07:33:17;;;;;;;17.50;9.10;;;;;;;8.23;57.42;100623.16;106296;1260;73825;-84
2023/11/21 07:35:45;;;;;;;23.50;13.00;;;;;;;8.27;57.70;100624.43;106156;1258;68404;-86
2023/11/21 07:38:13;;;;;;;18.00;9.20;;;;;;;8.27;57.67;100631.78;106314;1257;72653;-84
2023/11/21 07:40:45;;;;;;;22.00;9.10;;;;;;;8.33;57.72;100627.55;106104;1258;60550;-83
2023/11/21 07:43:19;;;;;;;;;;;;;;;8.43;57.09;100623.23;106169;1261;60159;-85
2023/11/21 07:45:47;;;;;;;14.40;8.60;;;;;;;8.36;56.63;100623.42;106293;1256;73976;-84
2023/11/21 07:48:15;;;;;;;14.10;7.50;;;;;;;8.57;55.96;100627.48;106542;1258;67114;-85
2023/11/21 07:50:48;;;;;;;11.80;6.30;;;;;;;8.61;55.73;100625.00;106064;1260;72732;-85
2023/11/21 07:53:16;;;;;;;12.90;6.30;;;;;;;8.61;55.07;100626.52;106840;1262;60472;-86
2023/11/21 07:55:50;;;;;;;13.50;6.80;;;;;;;8.44;54.98;100625.14;106203;1258;60493;-84
2023/11/21 07:58:24;;;;;;;15.90;7.20;;;;;;;8.52;54.55;100623.63;106314;1258;72653;-86
2023/11/21 08:00:57;;;;;;;14.60;8.00;;;;;;;8.51;53.95;100624.98;106149;1263;68702;-85
2023/11/21 08:03:26;;;;;;;11.00;6.60;;;;;;;8.65;53.53;100623.60;106354;1256;70512;-86
2023/11/21 08:05:56;;;;;;;15.00;7.30;;;;;;;8.65;53.49;100622.31;106137;1257;60500;-86
2023/11/21 08:08:24;;;;;;;12.00;6.60;;;;;;;8.79;52.89;100622.50;106498;1257;60494;-86
2023/11/21 08:10:56;;;;;;;13.00;6.90;;;;;;;8.65;52.86;100624.86;106278;1261;72648;-86
2023/11/21 08:13:27;;;;;;;14.10;6.60;;;;;;;8.57;53.37;100623.94;106021;1261;67284;-84
2023/11/21 08:16:01;;;;;;;18.90;8.90;;;;;;;8.46;53.65;100620.43;106151;1259;74825;-84
2023/11/21 08:18:35;;;;;;;12.00;6.30;;;;;;;8.55;53.71;100623.34;106235;1257;60268;-84
2023/11/21 08:21:04;;;;;;;14.70;7.50;;;;;;;8.68;53.11;100624.23;106175;1257;60450;-84
2023/11/21 08:23:38;;;;;;;14.50;6.60;;;;;;;8.58;53.55;100616.55;106191;1256;73959;-86
2023/11/21 08:26:06;;;;;;;13.30;6.10;;;;;;;8.68;53.57;100618.45;106150;1260;70636;-85
2023/11/21 08:28:40;;;;;;;11.10;5.90;;;;;;;8.58;53.51;100616.65;106294;1261;71471;-85
2023/11/21 08:31:08;;;;;;;10.50;5.40;;;;;;;8.76;52.94;100619.11;106275;1257;60442;-86
2023/11/21 08:33:37;;;;;;;12.60;6.60;;;;;;;8.79;52.56;100622.89;106102;1261;60941;-85
2023/11/21 08:36:12;;;;;;;11.70;6.10;;;;;;;8.81;52.41;100627.41;106020;1256;71669;-85
2023/11/21 08:38:46;;;;;;;10.60;5.90;;;;;;;8.73;52.55;100624.11;106648;1257;69932;-85
2023/11/21 08:41:14;;;;;;;13.50;6.20;;;;;;;8.81;52.56;100625.40;106127;1256;72668;-85
2023/11/21 08:43:42;;;;;;;11.70;6.10;;;;;;;8.89;52.48;100630.31;105956;1260;60802;-85
2023/11/21 08:46:17;;;;;;;11.50;6.70;;;;;;;8.91;52.29;100629.16;106139;1264;60439;-85
2023/11/21 08:48:45;;;;;;;11.20;5.40;;;;;;;8.98;51.43;100626.15;106198;1258;73865;-85
2023/11/21 08:51:17;;;;;;;9.20;5.40;;;;;;;8.93;50.55;100638.45;106653;1259;68789;-86
2023/11/21 08:53:45;;;;;;;8.30;4.20;;;;;;;8.66;50.03;100638.70;106159;1262;73890;-85
2023/11/21 08:56:19;;;;;;;12.00;5.30;;;;;;;8.56;49.98;100631.11;106155;1261;60544;-86
2023/11/21 08:58:47;;;;;;;10.90;6.00;;;;;;;8.40;50.21;100629.40;106282;1259;60361;-86
2023/11/21 09:01:15;;;;;;;8.50;5.00;;;;;;;8.49;50.23;100626.88;106191;1258;73869;-85
2023/11/21 09:03:50;;;;;;;11.00;5.40;;;;;;;8.68;50.32;100624.29;106339;1259;68868;-85
2023/11/21 09:06:24;;;;;;;9.00;5.20;;;;;;;8.61;50.71;100626.04;106070;1258;71074;-85
2023/11/21 09:08:52;;;;;;;10.00;5.10;;;;;;;8.56;51.28;100618.49;106221;1257;60523;-85
2023/11/21 09:11:20;;;;;;;12.80;6.20;;;;;;;8.63;51.19;100619.23;106193;1256;60512;-86
2023/11/21 09:13:54;;;;;;;20.90;8.00;;;;;;;8.68;51.27;100620.24;106171;1257;73860;-85
2023/11/21 09:16:22;;;;;;;13.40;6.00;;;;;;;8.61;51.15;100617.87;106117;1257;70580;-85
2023/11/21 09:18:50;;;;;;;13.00;6.10;;;;;;;8.52;50.90;100616.27;106131;1258;72700;-85
2023/11/21 09:21:18;;;;;;;11.70;5.50;;;;;;;8.51;50.35;100615.08;106137;1260;61518;-83
2023/11/21 09:23:52;;;;;;;12.50;5.80;;;;;;;8.50;49.91;100613.15;106019;1260;60518;-83
2023/11/21 09:26:20;;;;;;;11.30;6.30;;;;;;;8.61;49.97;100615.64;106166;1266;73573;-83
2023/11/21 09:28:48;;;;;;;11.50;6.10;;;;;;;8.56;49.69;100621.80;106131;1257;68732;-83
2023/11/21 09:31:23;;;;;;;10.80;5.80;;;;;;;8.34;50.00;100626.84;105968;1262;74486;-83
2023/11/21 09:33:57;;;;;;;12.80;6.10;;;;;;;8.56;49.55;100633.36;106141;1258;61256;-83
2023/11/21 09:36:27;;;;;;;9.20;5.30;;;;;;;8.63;49.36;100634.34;106369;1258;62425;-83
2023/11/21 09:39:05;;;;;;;11.10;6.20;;;;;;;8.72;49.45;100634.82;105891;1257;268265;-83
2023/11/21 09:41:48;;;;;;;11.10;5.70;;;;;;;8.75;49.60;100636.27;106124;1263;69546;-82
